Weather observations for the past three days for
Las Vegas Municipal Airport
Metric (Imperial)
Date Time (mdt) Wind (kph) Vis. (km) Weather Sky Cond. Temperature (ºC) Relative Humidity Wind Chill (°C) Heat Index (°C) Pressure Precipitation (cm)
Air Dwpt 6 hour altimeter (cm) sea level (mb) 1 hr 3 hr 6 hr
Max. Min.
06 16:53 S 19 G 35 16.09 NULL NULL 29.4 7.2 25% 28 76.63 1008.6
06 15:53 SE 24 G 44 16.09 Fair CLR 29.4 7.8 26% 28 76.63 1009.3
06 14:53 SE 26 G 46 16.09 Fair CLR 30 7.8 25% 28 76.68 1009.5
06 13:53 E 19 G 37 16.09 Fair CLR 29.4 7.8 26% 28 76.73 1010.4
06 12:53 E 26 G 37 16.09 NULL NULL 28.9 8.3 27% 28 76.78 1010.9
06 11:53 S 19 16.09 NULL NULL 28.3 7.8 28.3 16.1 27% 27 76.89 1012.5
06 10:53 Calm 16.09 NULL NULL 25.6 9.4 36% 26 76.91 1013.4
06 09:53 NW 11 16.09 Fair CLR 23.9 11.1 45% 25 76.89 1013.4
06 08:53 Calm 16.09 Fair CLR 20.6 11.1 55% 76.91 1014.3
06 07:53 NW 6 16.09 NULL NULL 17.2 12.2 73% 76.89 1014.4
06 06:53 Calm 16.09 NULL NULL 16.7 11.1 70% 76.86 1013.3
06 04:53 SE 11 16.09 NULL NULL 18.3 10.6 61% 76.84 1011.3
06 03:53 NW 6 16.09 NULL NULL 16.1 11.7 75% 76.84 1012.6
06 02:53 SW 11 16.09 NULL NULL 17.2 11.1 68% 76.84 1011.8
06 01:53 SE 15 16.09 NULL NULL 17.2 11.1 68% 76.84 1012.1
06 00:53 NE 11 16.09 NULL NULL 18.3 11.7 66% 76.84 1012.1
05 23:53 NE 13 16.09 NULL NULL 17.2 12.8 27.2 17.2 76% 76.84 1012.6
05 22:53 N 11 16.09 NULL NULL 17.8 12.2 70% 76.86 1013.0
05 21:53 W 9 16.09 NULL NULL 18.3 12.2 68% 76.86 1013.1
05 20:53 W 17 14.48 Light Rain NULL 19.4 12.2 63% 76.84 1013.3
05 19:53 SW 11 16.09 Overcast OVC090 21.7 11.7 53% 76.81 1013.4
05 18:53 SE 35 G 48 16.09 Breezy NULL 23.9 9.4 40% 25 76.73 1011.8
05 17:53 SW 9 16.09 Mostly Cloudy BKN100 27.2 7.8 29.4 25.6 29% 27 76.68 1010.5
05 16:53 W 13 16.09 Fair CLR 28.9 7.8 27% 28 76.68 1009.5
05 15:53 W 7 16.09 NULL NULL 27.2 8.3 30% 27 76.68 1010.3
05 14:53 W 31 16.09 NULL NULL 27.8 7.8 28% 27 76.73 1010.4
05 11:53 S 17 16.09 NULL NULL 25.6 10 25.6 15 37% 26 76.89 1012.9
05 10:53 Vrbl 11 16.09 NULL NULL 24.4 9.4 39% 25 76.89 1013.1
05 09:53 Calm 16.09 NULL NULL 23.3 10.6 45% 76.86 1012.8
05 08:53 Calm 16.09 NULL NULL 20 11.1 57% 76.86 1013.7
05 07:53 NW 7 16.09 NULL NULL 16.1 9.4 65% 76.86 1014.2
05 06:53 NW 7 16.09 NULL NULL 16.7 9.4 62% 76.81 1013.3
05 05:53 NE 13 16.09 NULL NULL 15.6 10.6 19.4 15.6 72% 76.81 1012.4
05 04:53 Calm 16.09 NULL NULL 17.2 10.6 65% 76.78 1011.3
05 03:53 N 7 16.09 NULL NULL 17.2 10.6 65% 76.76 1011.0
05 02:53 W 7 16.09 Mostly Cloudy BKN100 18.9 10 56% 76.76 1010.6
05 01:53 S 6 16.09 NULL NULL 18.9 10 56% 76.78 1011.2
05 00:53 E 11 16.09 A Few Clouds FEW110 17.2 10 63% 76.81 1011.8
04 23:53 SE 11 16.09 NULL NULL 18.3 10.6 26.1 17.8 61% 76.78 1011.4
04 22:53 S 9 16.09 Fair CLR 20 10 53% 76.78 1011.1
04 21:53 SW 17 16.09 NULL NULL 20.6 10.6 53% 76.84 1012.2
04 20:53 S 19 16.09 NULL NULL 20 10.6 55% 76.84 1013.0
04 19:53 S 28 G 44 16.09 NULL NULL 21.1 9.4 47% 76.81 1012.9
04 18:53 S 35 G 57 16.09 Breezy NULL 21.7 10.6 49% 76.78 1012.4
04 17:53 SW 26 16.09 NULL NULL 26.7 6.7 29.4 26.7 28% 26 76.68 1009.9
04 16:53 S 22 16.09 NULL NULL 28.3 7.2 26% 27 76.66 1008.6
04 15:53 SW 13 16.09 NULL NULL 27.8 6.7 26% 27 76.66 1008.9
04 14:53 S 19 G 30 16.09 NULL NULL 28.3 7.2 26% 27 76.68 1009.7
04 13:53 S 13 G 33 16.09 NULL NULL 27.8 8.3 29% 27 76.73 1010.2
04 12:53 SW 20 G 31 16.09 NULL NULL 27.2 8.9 32% 27 76.78 1010.8
04 11:53 S 17 16.09 Fair CLR 26.7 8.9 26.7 17.2 33% 26 76.84 1011.4
04 10:53 SW 17 16.09 NULL NULL 25 8.9 36% 26 76.84 1011.7
04 09:53 S 11 16.09 NULL NULL 23.3 9.4 41% 76.84 1012.3
04 08:53 S 15 16.09 NULL NULL 21.1 10 49% 76.81 1012.3
04 07:53 Calm 16.09 NULL NULL 18.9 10 56% 76.81 1012.3
04 06:53 SE 11 16.09 Mostly Cloudy BKN110 17.8 9.4 58% 76.76 1011.2
04 05:53 SE 6 16.09 NULL NULL 18.3 9.4 22.2 18.3 56% 76.73 1010.2
04 04:53 SW 11 16.09 NULL NULL 20 8.9 49% 76.71 1009.3
04 03:53 S 13 16.09 NULL NULL 20 8.9 49% 76.68 1008.8
04 02:53 S 13 16.09 NULL NULL 18.3 10.6 61% 76.68 1009.3
04 01:53 S 17 16.09 NULL NULL 19.4 9.4 53% 76.71 1009.5
04 00:53 W 9 11.27 Light Rain NULL 20.6 10 51% 76.71 1009.5
03 23:53 S 13 16.09 NULL NULL 20.6 7.8 28.3 20 44% 76.71 1009.7
03 22:53 S 19 16.09 NULL NULL 21.7 7.2 39% 76.71 1010.0
03 21:53 SE 15 16.09 NULL NULL 20.6 6.7 41% 76.73 1010.7
03 20:53 S 11 16.09 NULL NULL 22.2 6.7 37% 76.68 1010.3
03 19:53 S 13 16.09 NULL NULL 23.3 6.1 33% 76.63 1010.5
03 18:53 S 19 16.09 NULL NULL 26.1 6.1 28% 26 76.61 1010.2
03 17:53 S 20 G 41 16.09 Fair CLR 28.3 5.6 30 26.7 24% 27 76.61 1009.7
Date Time (mdt) Wind (kph) Vis. (km) Weather Sky Cond. Air Dwpt Max. Min. Relative Humidity Wind Chill (°C) Heat Index (°C) altimeter (cm) sea level (mb) 1 hr 3 hr 6 hr
6 hour
Temperature (ºC) Pressure Precipitation (cm)